Time;durP1;ratioP1;P1;durP2;ratioP2;P2;SDS_P1;SDS_P2;PMS_P1;PMS_P2;Temp;Humidity;BMP_temperature;BMP_pressure;BME280_temperature;BME280_humidity;BME280_pressure;Samples;Min_cycle;Max_cycle;Signal;HPM_P1;HPM_P2
2022/10/10 00:01:08;;;;;;;6.13;2.83;;;10.00;99.90;;;;;;5031185;28;20204;-69
2022/10/10 00:03:33;;;;;;;5.07;2.63;;;10.00;99.90;;;;;;5047615;28;20283;-70
2022/10/10 00:05:59;;;;;;;9.50;3.10;;;10.00;99.90;;;;;;5032421;28;20222;-69
2022/10/10 00:08:24;;;;;;;6.20;3.00;;;9.90;99.90;;;;;;5047651;28;20215;-70
2022/10/10 00:10:50;;;;;;;5.47;2.77;;;9.90;99.90;;;;;;5047261;28;20630;-69
2022/10/10 00:13:16;;;;;;;8.07;2.90;;;9.90;99.90;;;;;;5046381;28;20219;-69
2022/10/10 00:15:42;;;;;;;5.90;2.53;;;9.90;99.90;;;;;;5044813;28;20171;-70
2022/10/10 00:18:07;;;;;;;6.27;2.37;;;9.90;99.90;;;;;;5049791;28;20876;-70
2022/10/10 00:20:33;;;;;;;8.00;2.57;;;9.80;99.90;;;;;;5047391;28;20207;-70
2022/10/10 00:22:58;;;;;;;7.03;2.60;;;9.90;99.90;;;;;;5024531;28;20364;-69
2022/10/10 00:25:24;;;;;;;6.43;2.57;;;9.90;99.90;;;;;;5043885;28;20208;-69
2022/10/10 00:27:49;;;;;;;7.53;3.00;;;9.80;99.90;;;;;;5047489;28;20246;-70
2022/10/10 00:30:15;;;;;;;9.40;3.37;;;9.90;99.90;;;;;;5028455;28;20203;-70
2022/10/10 00:32:41;;;;;;;6.97;2.73;;;9.90;99.90;;;;;;5041619;28;20690;-69
2022/10/10 00:35:07;;;;;;;10.20;3.10;;;9.80;99.90;;;;;;5048386;28;20205;-69
2022/10/10 00:37:32;;;;;;;7.37;2.90;;;9.80;99.90;;;;;;5047701;28;20294;-69
2022/10/10 00:39:58;;;;;;;9.20;3.07;;;9.80;99.90;;;;;;5041934;28;20213;-69
2022/10/10 00:42:23;;;;;;;6.47;2.90;;;9.80;99.90;;;;;;5047577;28;20643;-70
2022/10/10 00:45:19;;;;;;;8.53;3.20;;;9.70;99.90;;;;;;5029613;28;20199;-69
2022/10/10 00:47:46;;;;;;;5.77;2.57;;;9.60;99.90;;;;;;5042173;28;20245;-70
2022/10/10 00:50:11;;;;;;;7.57;2.70;;;9.70;99.90;;;;;;5042524;28;20243;-69
2022/10/10 00:52:38;;;;;;;7.43;2.90;;;9.60;99.90;;;;;;5031582;28;20231;-69
2022/10/10 00:55:04;;;;;;;5.30;2.67;;;9.60;99.90;;;;;;5044317;28;20204;-69
2022/10/10 00:57:30;;;;;;;9.27;2.90;;;9.60;99.90;;;;;;5040416;28;20176;-70
2022/10/10 00:59:56;;;;;;;7.30;2.80;;;9.50;99.90;;;;;;5046770;28;20270;-69
2022/10/10 01:02:22;;;;;;;7.33;2.33;;;9.60;99.90;;;;;;5047647;28;20575;-69
2022/10/10 01:04:47;;;;;;;5.77;2.47;;;9.60;99.90;;;;;;5043421;28;20208;-70
2022/10/10 01:07:21;;;;;;;7.80;2.37;;;9.60;99.90;;;;;;5042948;28;20211;-72
2022/10/10 01:09:50;;;;;;;6.50;3.07;;;9.50;99.90;;;;;;5041818;28;20214;-70
2022/10/10 01:12:34;;;;;;;7.20;3.07;;;9.60;99.90;;;;;;5028664;28;20679;-70
2022/10/10 01:15:14;;;;;;;4.70;2.47;;;9.50;99.90;;;;;;5039500;28;20332;-69
2022/10/10 01:17:51;;;;;;;5.23;2.67;;;9.50;99.90;;;;;;5048382;28;20214;-69
2022/10/10 01:21:00;;;;;;;9.63;3.03;;;9.50;99.90;;;;;;5016578;28;20215;-69
2022/10/10 01:23:48;;;;;;;3.50;2.53;;;9.50;99.90;;;;;;5026300;28;20678;-69
2022/10/10 01:26:52;;;;;;;7.90;2.80;;;9.50;99.90;;;;;;5043754;28;20929;-69
2022/10/10 01:29:23;;;;;;;6.00;2.70;;;9.50;99.90;;;;;;4960536;28;20210;-69
2022/10/10 01:31:53;;;;;;;6.33;2.87;;;9.50;99.90;;;;;;4960570;28;20237;-69
2022/10/10 01:34:35;;;;;;;9.80;2.83;;;9.50;99.90;;;;;;5007566;28;20229;-69
2022/10/10 01:37:10;;;;;;;9.20;2.60;;;9.40;99.90;;;;;;5027320;28;20216;-70
2022/10/10 01:39:56;;;;;;;8.70;2.83;;;9.40;99.90;;;;;;5039973;28;20199;-69
2022/10/10 01:42:30;;;;;;;6.50;2.50;;;9.40;99.90;;;;;;5029025;28;20171;-69
2022/10/10 01:44:56;;;;;;;10.00;3.43;;;9.40;99.90;;;;;;5028495;28;20219;-69
2022/10/10 01:47:22;;;;;;;6.57;3.10;;;9.40;99.90;;;;;;5045037;28;20421;-69
2022/10/10 01:49:53;;;;;;;5.50;2.50;;;9.30;99.90;;;;;;5039151;28;20261;-69
2022/10/10 01:52:31;;;;;;;8.67;2.90;;;9.40;99.90;;;;;;5040687;28;20234;-69
2022/10/10 01:55:16;;;;;;;8.50;3.20;;;9.30;99.90;;;;;;5025873;28;20195;-69
2022/10/10 01:57:50;;;;;;;10.13;2.80;;;9.30;99.90;;;;;;5040728;28;20191;-70
2022/10/10 02:00:17;;;;;;;7.30;2.83;;;9.40;99.90;;;;;;5048563;28;20677;-70
2022/10/10 02:02:45;;;;;;;6.23;2.33;;;9.40;99.90;;;;;;5045908;28;20567;-70
2022/10/10 02:05:41;;;;;;;7.57;2.63;;;9.40;99.90;;;;;;5043071;28;20850;-70
2022/10/10 02:08:20;;;;;;;7.57;2.70;;;9.40;99.90;;;;;;5042629;28;20215;-70
2022/10/10 02:10:51;;;;;;;8.23;2.40;;;9.30;99.90;;;;;;5040841;28;20235;-70
2022/10/10 02:13:20;;;;;;;7.90;2.90;;;9.30;99.90;;;;;;5025005;28;20565;-70
2022/10/10 02:15:52;;;;;;;6.43;2.80;;;9.30;99.90;;;;;;5024357;28;20265;-70
2022/10/10 02:18:21;;;;;;;8.00;2.93;;;9.40;99.90;;;;;;5013879;28;20172;-70
2022/10/10 02:20:49;;;;;;;5.80;2.30;;;9.40;99.90;;;;;;5025774;28;20219;-70
2022/10/10 02:23:16;;;;;;;6.70;3.30;;;9.30;99.90;;;;;;5024718;28;20853;-69
2022/10/10 02:25:46;;;;;;;6.13;2.50;;;9.20;99.90;;;;;;5021874;28;20242;-69
2022/10/10 02:28:21;;;;;;;7.90;2.60;;;9.30;99.90;;;;;;5046286;28;20220;-70
2022/10/10 02:30:51;;;;;;;7.07;2.60;;;9.20;99.90;;;;;;5041555;28;20222;-69
2022/10/10 02:33:23;;;;;;;6.20;3.10;;;9.20;99.90;;;;;;5042465;28;20212;-69
2022/10/10 02:35:51;;;;;;;5.47;2.93;;;9.20;99.90;;;;;;5035853;28;20220;-70
2022/10/10 02:38:18;;;;;;;11.27;2.70;;;9.20;99.90;;;;;;5014880;28;20204;-69
2022/10/10 02:40:46;;;;;;;5.37;2.47;;;9.10;99.90;;;;;;5020923;28;20215;-70
2022/10/10 02:43:13;;;;;;;6.17;2.13;;;9.10;99.90;;;;;;5037474;28;20581;-69
2022/10/10 02:45:41;;;;;;;5.30;2.47;;;9.10;99.90;;;;;;5035144;28;20183;-70
2022/10/10 02:48:06;;;;;;;6.00;3.00;;;9.10;99.90;;;;;;5039046;28;20544;-70
2022/10/10 02:50:32;;;;;;;9.03;2.97;;;9.00;99.90;;;;;;5020366;28;20219;-70
2022/10/10 02:52:58;;;;;;;6.00;2.60;;;9.00;99.90;;;;;;5039201;28;20300;-69
2022/10/10 02:55:24;;;;;;;6.63;2.50;;;9.10;99.90;;;;;;5040385;28;20665;-69
2022/10/10 02:57:49;;;;;;;7.97;2.73;;;9.00;99.90;;;;;;5038306;28;20212;-70
2022/10/10 03:00:15;;;;;;;6.37;2.43;;;9.00;99.90;;;;;;5037509;28;20204;-69
2022/10/10 03:02:41;;;;;;;8.20;2.80;;;9.00;99.90;;;;;;5040811;28;20207;-70
2022/10/10 03:05:07;;;;;;;8.23;2.60;;;9.00;99.90;;;;;;5038478;28;20312;-70
2022/10/10 03:07:33;;;;;;;6.57;2.80;;;8.90;99.90;;;;;;5038516;28;20219;-69
2022/10/10 03:09:58;;;;;;;7.93;2.50;;;9.00;99.90;;;;;;5038618;28;20211;-69
2022/10/10 03:12:24;;;;;;;8.03;2.60;;;8.90;99.90;;;;;;5041192;28;20199;-70
2022/10/10 03:14:49;;;;;;;3.80;2.57;;;8.90;99.90;;;;;;5038333;28;20208;-70
2022/10/10 03:17:15;;;;;;;6.10;2.93;;;8.90;99.90;;;;;;5041114;28;20267;-69
2022/10/10 03:19:41;;;;;;;7.20;2.60;;;8.90;99.90;;;;;;5022636;28;20227;-69
2022/10/10 03:22:06;;;;;;;7.27;2.70;;;8.80;99.90;;;;;;5069944;23;20236;-71
2022/10/10 03:24:32;;;;;;;6.93;3.10;;;8.80;99.90;;;;;;5041979;28;20206;-71
2022/10/10 03:26:57;;;;;;;8.67;2.53;;;8.80;99.90;;;;;;5050701;28;20552;-71
2022/10/10 03:29:23;;;;;;;8.73;2.93;;;8.80;99.90;;;;;;5048873;28;20208;-70
2022/10/10 03:31:49;;;;;;;6.47;2.33;;;8.70;99.90;;;;;;5047385;28;20216;-70
2022/10/10 03:34:15;;;;;;;7.63;2.90;;;8.70;99.90;;;;;;5047565;28;20693;-71
2022/10/10 03:36:40;;;;;;;10.30;2.50;;;8.70;99.90;;;;;;5050174;28;20187;-71
2022/10/10 03:39:08;;;;;;;6.43;3.00;;;8.70;99.90;;;;;;5048538;28;20180;-70
2022/10/10 03:41:33;;;;;;;6.63;2.70;;;8.70;99.90;;;;;;5044930;28;20583;-70
2022/10/10 03:43:59;;;;;;;8.17;2.80;;;8.70;99.90;;;;;;5031693;28;20211;-71
2022/10/10 03:46:24;;;;;;;6.83;2.70;;;8.60;99.90;;;;;;5048505;28;20284;-71
2022/10/10 03:48:50;;;;;;;6.07;2.90;;;8.60;99.90;;;;;;5042841;28;20702;-70
2022/10/10 03:51:16;;;;;;;5.13;3.10;;;8.60;99.90;;;;;;5029914;28;20202;-71
2022/10/10 03:53:41;;;;;;;6.73;2.90;;;8.60;99.90;;;;;;5049133;28;20220;-71
2022/10/10 03:56:07;;;;;;;6.67;2.90;;;8.60;99.90;;;;;;5046143;28;20350;-71
2022/10/10 03:58:33;;;;;;;6.33;2.70;;;8.60;99.90;;;;;;5045050;28;20221;-71
2022/10/10 04:01:00;;;;;;;5.87;3.00;;;8.50;99.90;;;;;;5031379;28;20723;-71
2022/10/10 04:03:27;;;;;;;7.67;2.97;;;8.60;99.90;;;;;;5048997;28;20184;-71
2022/10/10 04:05:53;;;;;;;5.07;2.97;;;8.50;99.90;;;;;;5025023;28;20180;-69
2022/10/10 04:08:19;;;;;;;8.07;2.90;;;8.50;99.90;;;;;;5052769;28;20298;-71
2022/10/10 04:10:48;;;;;;;6.43;3.37;;;8.50;99.90;;;;;;5048311;28;20295;-70
2022/10/10 04:13:14;;;;;;;6.17;3.00;;;8.50;99.90;;;;;;5046474;28;20211;-71
2022/10/10 04:15:39;;;;;;;5.53;2.40;;;8.50;99.90;;;;;;5042423;28;20180;-72
2022/10/10 04:18:05;;;;;;;6.23;2.57;;;8.40;99.90;;;;;;5049333;28;20189;-70
2022/10/10 04:20:31;;;;;;;7.07;2.73;;;8.50;99.90;;;;;;5048005;28;20211;-70
2022/10/10 04:22:56;;;;;;;7.50;3.20;;;8.40;99.90;;;;;;5024802;28;20236;-72
2022/10/10 04:25:22;;;;;;;7.47;3.50;;;8.40;99.90;;;;;;5043706;28;20252;-71
2022/10/10 04:27:48;;;;;;;5.07;2.73;;;8.40;99.90;;;;;;5048043;28;20690;-70
2022/10/10 04:30:13;;;;;;;7.07;2.90;;;8.40;99.90;;;;;;5046148;28;20638;-71
2022/10/10 04:32:39;;;;;;;9.20;3.80;;;8.40;99.90;;;;;;5024239;28;20260;-71
2022/10/10 04:35:05;;;;;;;8.70;3.17;;;8.40;99.90;;;;;;5048007;28;20212;-71
2022/10/10 04:37:30;;;;;;;7.77;2.90;;;8.40;99.90;;;;;;5047765;28;20204;-71
2022/10/10 04:39:56;;;;;;;8.33;3.00;;;8.30;99.90;;;;;;5041611;28;20204;-71
2022/10/10 04:42:21;;;;;;;7.53;3.33;;;8.30;99.90;;;;;;5046334;28;20200;-70
2022/10/10 04:44:47;;;;;;;5.17;3.17;;;8.30;99.90;;;;;;5030081;28;20690;-70
2022/10/10 04:47:13;;;;;;;7.67;3.37;;;8.20;99.90;;;;;;5045320;28;20586;-70
2022/10/10 04:49:40;;;;;;;8.60;3.07;;;8.20;99.90;;;;;;5041884;28;20235;-71
2022/10/10 04:52:07;;;;;;;10.67;3.57;;;8.20;99.90;;;;;;5047960;28;20239;-71
2022/10/10 04:54:32;;;;;;;7.73;3.07;;;8.20;99.90;;;;;;5046212;28;20225;-70
2022/10/10 04:56:58;;;;;;;4.73;2.90;;;8.20;99.90;;;;;;5034023;28;20184;-70
2022/10/10 04:59:23;;;;;;;8.80;3.43;;;8.20;99.90;;;;;;5054042;28;20214;-71
2022/10/10 05:01:49;;;;;;;7.43;3.23;;;8.20;99.90;;;;;;5052992;28;20220;-71
2022/10/10 05:04:15;;;;;;;6.93;3.87;;;8.20;99.90;;;;;;5032680;28;20203;-71
2022/10/10 05:06:41;;;;;;;11.30;3.53;;;8.20;99.90;;;;;;5041576;28;20222;-70
2022/10/10 05:09:06;;;;;;;7.33;2.93;;;8.20;99.90;;;;;;5057315;28;20216;-71
2022/10/10 05:11:32;;;;;;;5.80;2.63;;;8.20;99.90;;;;;;5052627;28;20231;-71
2022/10/10 05:13:57;;;;;;;6.57;3.20;;;8.10;99.90;;;;;;5045096;28;20290;-70
2022/10/10 05:16:23;;;;;;;10.00;3.73;;;8.10;99.90;;;;;;5046981;28;20689;-70
2022/10/10 05:18:48;;;;;;;5.47;3.13;;;8.10;99.90;;;;;;5053413;28;20211;-70
2022/10/10 05:21:14;;;;;;;10.83;3.47;;;8.20;99.90;;;;;;5050623;28;20219;-71
2022/10/10 05:23:43;;;;;;;7.47;3.53;;;8.10;99.90;;;;;;5042901;28;20257;-72
2022/10/10 05:26:09;;;;;;;8.27;3.40;;;8.10;99.90;;;;;;5058117;28;20200;-71
2022/10/10 05:28:35;;;;;;;5.40;3.50;;;8.10;99.90;;;;;;5052192;28;20585;-70
2022/10/10 05:31:02;;;;;;;10.97;3.80;;;8.10;99.90;;;;;;5026992;28;20254;-71
2022/10/10 05:33:28;;;;;;;10.13;3.60;;;8.10;99.90;;;;;;5046982;28;20202;-70
2022/10/10 05:36:02;;;;;;;8.77;3.37;;;8.10;99.90;;;;;;5053605;28;20573;-70
2022/10/10 05:38:28;;;;;;;9.93;3.20;;;8.10;99.90;;;;;;5049672;28;20206;-71
2022/10/10 05:40:54;;;;;;;5.80;3.50;;;8.20;99.90;;;;;;5040778;28;20208;-70
2022/10/10 05:43:19;;;;;;;7.67;3.07;;;8.20;99.90;;;;;;5042574;28;20207;-70
2022/10/10 05:45:45;;;;;;;6.47;3.47;;;8.20;99.90;;;;;;5050316;28;20203;-70
2022/10/10 05:48:10;;;;;;;9.53;3.37;;;8.30;99.90;;;;;;5047472;28;20234;-70
2022/10/10 05:50:39;;;;;;;8.17;3.47;;;8.30;99.90;;;;;;5045305;28;20206;-70
2022/10/10 05:53:05;;;;;;;6.57;3.47;;;8.30;99.90;;;;;;5036545;28;20215;-70
2022/10/10 05:55:31;;;;;;;9.77;4.37;;;8.40;99.90;;;;;;5051989;28;20234;-71
2022/10/10 05:57:57;;;;;;;13.50;3.80;;;9.10;99.90;;;;;;5041841;28;20223;-71
2022/10/10 06:00:23;;;;;;;5.63;3.40;;;11.50;99.90;;;;;;5058587;28;20175;-70
2022/10/10 06:02:48;;;;;;;8.50;3.50;;;13.10;99.90;;;;;;5049908;28;20214;-71
2022/10/10 06:05:14;;;;;;;7.37;3.63;;;14.70;99.90;;;;;;5045942;28;20745;-71
2022/10/10 06:07:40;;;;;;;7.53;3.10;;;15.20;99.90;;;;;;5044789;28;20570;-71
2022/10/10 06:10:06;;;;;;;9.02;3.72;;;15.60;99.90;;;;;;5054384;28;20227;-71
2022/10/10 06:12:31;;;;;;;7.50;3.83;;;16.20;99.90;;;;;;5035812;28;20260;-71
2022/10/10 06:14:57;;;;;;;6.68;3.10;;;17.20;99.90;;;;;;5042253;28;20643;-71
2022/10/10 06:17:22;;;;;;;7.05;2.72;;;17.20;99.90;;;;;;5051731;28;20720;-71
2022/10/10 06:19:48;;;;;;;6.22;3.15;;;18.40;99.90;;;;;;5048071;28;20697;-71
2022/10/10 06:22:13;;;;;;;10.13;3.15;;;16.90;99.90;;;;;;5046944;28;20627;-71
2022/10/10 06:24:39;;;;;;;6.85;2.97;;;14.50;99.90;;;;;;5047227;28;20182;-71
2022/10/10 06:27:04;;;;;;;8.50;3.47;;;13.00;99.90;;;;;;5055790;28;20671;-70
2022/10/10 06:29:30;;;;;;;6.18;3.33;;;12.30;99.90;;;;;;5049199;28;20678;-71
2022/10/10 06:31:55;;;;;;;8.83;3.60;;;11.60;99.90;;;;;;5023809;28;20758;-70
2022/10/10 06:34:21;;;;;;;8.17;3.93;;;11.10;99.90;;;;;;5051883;28;20195;-70
2022/10/10 06:36:49;;;;;;;10.97;3.70;;;10.50;99.90;;;;;;5049946;28;20727;-70
2022/10/10 06:39:15;;;;;;;7.43;3.43;;;12.30;99.90;;;;;;5030605;28;20559;-72
2022/10/10 06:41:40;;;;;;;6.47;3.33;;;14.10;99.90;;;;;;5046626;28;20207;-70
2022/10/10 06:44:06;;;;;;;8.20;3.33;;;14.90;99.90;;;;;;5055050;28;20280;-70
2022/10/10 06:46:36;;;;;;;6.40;3.28;;;15.90;99.90;;;;;;5049863;28;20204;-70
2022/10/10 06:49:02;;;;;;;7.10;3.40;;;16.10;99.90;;;;;;5024559;28;20224;-70
2022/10/10 06:51:28;;;;;;;6.15;2.92;;;16.30;99.90;;;;;;5051886;28;20680;-70
2022/10/10 06:53:56;;;;;;;7.90;3.40;;;16.20;99.90;;;;;;5050775;28;20172;-70
2022/10/10 06:56:22;;;;;;;9.00;3.53;;;17.00;99.90;;;;;;5050610;28;20230;-71
2022/10/10 06:58:48;;;;;;;6.97;2.90;;;16.20;99.90;;;;;;5021488;28;20695;-70
2022/10/10 07:01:15;;;;;;;5.30;3.10;;;16.60;99.90;;;;;;5057268;28;20217;-70
2022/10/10 07:03:41;;;;;;;5.53;3.40;;;16.60;99.90;;;;;;5050974;28;20183;-70
2022/10/10 07:06:09;;;;;;;7.78;2.88;;;15.60;99.90;;;;;;5048141;28;20188;-70
2022/10/10 07:08:35;;;;;;;5.30;3.15;;;16.60;99.90;;;;;;5054852;28;20207;-70
2022/10/10 07:11:01;;;;;;;8.68;3.67;;;15.40;99.90;;;;;;5054555;28;20270;-70
2022/10/10 07:13:27;;;;;;;6.68;2.92;;;15.30;99.90;;;;;;5050930;28;20215;-69
2022/10/10 07:15:52;;;;;;;6.75;2.83;;;14.30;99.90;;;;;;5042969;28;20212;-70
2022/10/10 07:18:18;;;;;;;7.18;3.35;;;13.50;99.90;;;;;;5060431;28;20551;-71
2022/10/10 07:20:44;;;;;;;11.05;3.70;;;13.40;99.90;;;;;;5051122;28;20247;-69
2022/10/10 07:23:09;;;;;;;5.90;2.87;;;12.60;99.90;;;;;;5047869;28;20293;-69
2022/10/10 07:25:39;;;;;;;8.33;3.40;;;12.30;99.90;;;;;;5055225;28;20244;-70
2022/10/10 07:28:06;;;;;;;7.10;3.20;;;11.90;99.90;;;;;;5055874;28;20216;-70
2022/10/10 07:30:32;;;;;;;10.10;3.57;;;11.50;99.90;;;;;;5048062;28;20171;-70
2022/10/10 07:32:58;;;;;;;33.40;20.53;;;11.30;99.90;;;;;;5045079;28;20196;-70
2022/10/10 07:35:24;;;;;;;11.73;4.07;;;11.20;99.90;;;;;;5059887;28;20211;-70
2022/10/10 07:37:54;;;;;;;7.83;3.50;;;11.40;99.90;;;;;;5050706;28;20203;-69
2022/10/10 07:40:20;;;;;;;7.53;3.27;;;12.20;99.90;;;;;;5048778;28;20299;-67
2022/10/10 07:42:46;;;;;;;8.07;3.73;;;12.80;99.90;;;;;;5055756;28;20294;-69
2022/10/10 07:45:11;;;;;;;5.17;3.13;;;13.20;99.90;;;;;;5056635;28;20177;-70
2022/10/10 07:47:38;;;;;;;10.53;3.20;;;12.90;99.90;;;;;;5052000;28;20215;-70
2022/10/10 07:50:05;;;;;;;9.40;3.27;;;12.50;99.90;;;;;;5027870;28;20240;-70
2022/10/10 07:52:31;;;;;;;9.20;3.47;;;12.00;99.90;;;;;;5059020;28;20203;-70
2022/10/10 07:54:56;;;;;;;9.60;3.80;;;11.90;99.90;;;;;;5054478;28;20206;-71
2022/10/10 07:57:22;;;;;;;8.33;3.67;;;12.40;99.90;;;;;;5048682;28;20262;-71
2022/10/10 07:59:48;;;;;;;4.20;3.07;;;12.10;99.90;;;;;;5046367;28;20230;-71
2022/10/10 08:02:13;;;;;;;8.50;4.30;;;12.00;99.90;;;;;;5056406;28;20310;-71
2022/10/10 08:04:39;;;;;;;8.73;3.60;;;12.00;99.90;;;;;;5049334;28;20265;-70
2022/10/10 08:07:05;;;;;;;7.53;3.63;;;12.10;99.90;;;;;;5045340;28;20330;-70
2022/10/10 08:09:31;;;;;;;5.63;3.50;;;12.30;99.90;;;;;;5058497;28;20248;-71
2022/10/10 08:11:56;;;;;;;6.33;3.10;;;11.90;99.90;;;;;;5051268;28;20196;-68
2022/10/10 08:14:22;;;;;;;6.77;3.20;;;11.10;99.90;;;;;;5050752;28;20200;-71
2022/10/10 08:16:47;;;;;;;9.83;3.87;;;11.00;99.90;;;;;;5047779;28;20208;-70
2022/10/10 08:19:13;;;;;;;6.97;3.27;;;11.70;99.90;;;;;;5056867;28;20513;-70
2022/10/10 08:21:38;;;;;;;8.43;3.10;;;12.80;99.90;;;;;;5049339;28;20222;-71
2022/10/10 08:24:04;;;;;;;9.93;3.00;;;13.70;99.90;;;;;;5046484;28;20180;-70
2022/10/10 08:26:30;;;;;;;7.93;3.40;;;14.40;99.90;;;;;;5042670;28;20202;-71
2022/10/10 08:28:55;;;;;;;6.87;2.93;;;14.70;99.90;;;;;;5049778;28;20227;-70
2022/10/10 08:31:21;;;;;;;9.37;3.13;;;14.50;99.90;;;;;;5048060;28;20756;-71
2022/10/10 08:33:48;;;;;;;7.00;3.23;;;14.50;99.90;;;;;;5048185;28;20302;-71
2022/10/10 08:36:18;;;;;;;7.40;3.33;;;14.30;99.90;;;;;;5054472;28;20311;-71
2022/10/10 08:38:44;;;;;;;6.97;3.30;;;14.30;99.90;;;;;;5031134;28;20214;-71
2022/10/10 08:41:26;;;;;;;8.43;3.23;;;13.90;99.90;;;;;;5046836;28;20571;-72
2022/10/10 08:44:18;;;;;;;11.40;3.37;;;14.20;99.90;;;;;;5035004;28;20208;-70
2022/10/10 08:46:58;;;;;;;10.83;3.50;;;14.00;99.90;;;;;;5049054;28;20204;-71
2022/10/10 08:49:31;;;;;;;9.97;3.67;;;14.40;99.90;;;;;;5044985;28;20295;-70
2022/10/10 08:52:04;;;;;;;8.73;3.50;;;14.40;99.90;;;;;;5054714;28;20854;-71
2022/10/10 08:54:33;;;;;;;11.60;3.47;;;15.10;99.90;;;;;;5053914;28;20164;-71
2022/10/10 08:57:03;;;;;;;13.53;3.27;;;14.80;99.90;;;;;;5048767;28;20226;-70
2022/10/10 08:59:37;;;;;;;8.73;3.10;;;14.80;99.90;;;;;;5047124;28;20226;-71
2022/10/10 09:02:33;;;;;;;6.60;2.60;;;14.60;99.90;;;;;;5054729;28;20215;-71
2022/10/10 09:04:59;;;;;;;4.10;2.40;;;15.20;99.90;;;;;;5046982;28;20599;-70
2022/10/10 09:07:30;;;;;;;7.33;3.10;;;15.00;99.90;;;;;;5048251;28;20215;-71
2022/10/10 09:10:01;;;;;;;5.53;2.73;;;14.90;99.90;;;;;;5053557;28;20220;-71
2022/10/10 09:12:43;;;;;;;4.97;2.80;;;14.80;99.90;;;;;;5051696;28;20207;-71
2022/10/10 09:15:15;;;;;;;5.38;3.05;;;15.10;99.90;;;;;;5045777;28;20192;-71
2022/10/10 09:17:46;;;;;;;3.67;2.50;;;15.30;99.90;;;;;;5051884;28;20212;-71
2022/10/10 09:20:17;;;;;;;7.35;3.20;;;15.70;99.90;;;;;;5053082;28;20295;-71
2022/10/10 09:23:07;;;;;;;5.40;2.58;;;15.90;99.90;;;;;;5045059;28;20254;-71
2022/10/10 09:25:37;;;;;;;9.32;2.55;;;15.90;99.90;;;;;;5053238;23;20250;-71
2022/10/10 09:28:13;;;;;;;7.35;2.85;;;15.70;99.90;;;;;;5016539;28;20228;-71
2022/10/10 09:30:47;;;;;;;3.45;2.42;;;15.20;99.90;;;;;;5025866;28;20187;-71
2022/10/10 09:33:26;;;;;;;5.00;2.28;;;15.10;99.90;;;;;;5032684;28;20191;-71
2022/10/10 09:35:54;;;;;;;8.68;2.92;;;15.00;99.90;;;;;;5012781;28;20256;-72
2022/10/10 09:38:47;;;;;;;7.47;2.72;;;15.10;99.90;;;;;;5007177;28;20218;-71
2022/10/10 09:41:23;;;;;;;4.85;2.58;;;15.10;99.90;;;;;;5024746;28;20238;-71
2022/10/10 09:43:55;;;;;;;4.50;2.72;;;15.20;99.90;;;;;;5031403;28;20226;-71
2022/10/10 09:46:21;;;;;;;10.55;3.13;;;15.30;99.90;;;;;;5013860;28;20295;-72
2022/10/10 09:48:46;;;;;;;6.60;2.65;;;15.30;99.90;;;;;;5005209;28;20680;-71
2022/10/10 09:51:15;;;;;;;7.90;3.00;;;15.50;99.90;;;;;;5031725;28;20298;-71
2022/10/10 09:53:43;;;;;;;7.97;3.10;;;16.10;99.90;;;;;;5029583;28;20709;-71
2022/10/10 09:56:16;;;;;;;6.78;2.60;;;16.20;99.90;;;;;;5027280;28;20212;-71
2022/10/10 09:58:46;;;;;;;8.80;2.60;;;16.10;99.90;;;;;;5025376;28;20216;-71
2022/10/10 10:01:16;;;;;;;4.63;2.72;;;15.70;99.90;;;;;;5018478;28;20863;-71
2022/10/10 10:03:42;;;;;;;5.60;2.80;;;15.50;99.90;;;;;;5028835;28;20184;-71
2022/10/10 10:06:12;;;;;;;4.93;2.92;;;15.10;99.90;;;;;;5007620;28;20200;-72
2022/10/10 10:08:38;;;;;;;4.45;2.92;;;14.90;99.90;;;;;;5032538;28;20679;-71
2022/10/10 10:11:04;;;;;;;5.80;3.30;;;14.80;99.90;;;;;;5032232;28;20208;-71
2022/10/10 10:13:32;;;;;;;4.78;2.85;;;14.80;99.90;;;;;;5027152;28;20758;-72
2022/10/10 10:16:14;;;;;;;4.57;2.60;;;14.90;99.90;;;;;;5020645;28;20295;-71
2022/10/10 10:18:44;;;;;;;10.05;3.33;;;15.30;99.90;;;;;;5034439;28;20259;-71
2022/10/10 10:21:19;;;;;;;11.45;3.20;;;15.90;99.90;;;;;;5028249;28;20761;-69
2022/10/10 10:24:23;;;;;;;8.43;2.97;;;15.90;99.90;;;;;;5021191;28;20212;-69
2022/10/10 10:26:49;;;;;;;6.35;2.92;;;16.00;99.90;;;;;;5021644;28;20309;-69
2022/10/10 10:29:27;;;;;;;5.45;2.63;;;16.30;99.90;;;;;;5013146;28;20439;-71
2022/10/10 10:32:02;;;;;;;5.97;3.10;;;16.30;99.90;;;;;;5022170;28;20232;-71
2022/10/10 10:34:43;;;;;;;5.30;2.80;;;16.70;99.90;;;;;;5018039;28;20210;-69
2022/10/10 10:37:20;;;;;;;5.20;2.70;;;16.40;99.90;;;;;;5019272;28;20223;-70
2022/10/10 10:39:45;;;;;;;11.18;3.33;;;16.10;99.90;;;;;;5029435;28;20215;-70
2022/10/10 10:42:17;;;;;;;5.68;2.78;;;16.20;99.90;;;;;;5030574;28;20493;-70
2022/10/10 10:45:13;;;;;;;5.90;2.90;;;16.00;99.90;;;;;;5035726;28;20218;-70
2022/10/10 10:47:57;;;;;;;6.40;2.70;;;16.00;99.90;;;;;;5005819;28;20211;-70
2022/10/10 10:50:49;;;;;;;7.88;2.72;;;16.30;99.90;;;;;;5028849;28;20205;-70
2022/10/10 10:53:29;;;;;;;8.18;2.85;;;16.80;99.90;;;;;;5041436;28;20207;-70
2022/10/10 10:56:14;;;;;;;8.43;3.03;;;16.50;99.90;;;;;;5014930;28;20266;-69
2022/10/10 10:59:03;;;;;;;5.93;2.38;;;16.50;99.90;;;;;;5029040;28;20232;-70
2022/10/10 11:01:31;;;;;;;6.07;2.42;;;16.40;99.90;;;;;;4976257;28;20200;-70
2022/10/10 11:04:31;;;;;;;5.70;2.70;;;16.20;99.90;;;;;;5016070;28;20235;-69
2022/10/10 11:07:04;;;;;;;3.72;2.53;;;16.00;99.90;;;;;;4993067;28;20255;-70
2022/10/10 11:09:41;;;;;;;7.05;2.50;;;16.20;99.90;;;;;;5042616;28;20172;-70
2022/10/10 11:12:32;;;;;;;4.60;2.50;;;16.40;99.90;;;;;;5036735;28;20264;-70
2022/10/10 11:15:10;;;;;;;5.65;2.80;;;16.50;99.90;;;;;;5028676;28;20213;-70
2022/10/10 11:17:42;;;;;;;9.02;2.75;;;16.30;99.90;;;;;;5038026;28;20244;-70
2022/10/10 11:20:25;;;;;;;5.78;2.55;;;16.30;99.90;;;;;;5037426;28;20821;-70
2022/10/10 11:22:57;;;;;;;6.28;2.50;;;16.30;99.90;;;;;;5029362;28;20926;-70
2022/10/10 11:25:29;;;;;;;5.30;2.40;;;15.80;99.90;;;;;;5038649;28;20223;-70
2022/10/10 11:28:26;;;;;;;6.45;2.78;;;15.90;99.90;;;;;;5037597;28;20327;-70
2022/10/10 11:31:00;;;;;;;8.63;2.75;;;16.10;99.90;;;;;;5014661;28;20218;-70
2022/10/10 11:33:39;;;;;;;5.60;2.58;;;16.40;99.90;;;;;;5037374;28;20220;-70
2022/10/10 11:36:14;;;;;;;4.50;2.30;;;16.60;99.90;;;;;;5040454;28;20212;-70
2022/10/10 11:38:49;;;;;;;7.70;2.92;;;16.50;99.90;;;;;;5033018;28;20200;-70
2022/10/10 11:41:22;;;;;;;4.43;2.30;;;16.40;99.90;;;;;;5030167;28;20763;-71
2022/10/10 11:44:08;;;;;;;6.30;3.42;;;16.50;99.90;;;;;;5037049;28;20208;-69
2022/10/10 11:46:53;;;;;;;7.22;2.80;;;16.80;99.90;;;;;;5034908;28;20208;-71
2022/10/10 11:49:54;;;;;;;8.63;3.20;;;17.00;99.90;;;;;;5026454;28;20208;-70
2022/10/10 11:52:29;;;;;;;7.47;3.38;;;17.10;99.90;;;;;;5034752;28;20230;-71
2022/10/10 11:55:21;;;;;;;3.85;2.50;;;17.20;99.90;;;;;;5031991;28;20718;-70
2022/10/10 11:57:56;;;;;;;7.60;2.60;;;17.50;99.90;;;;;;5026865;28;20217;-70
2022/10/10 12:00:22;;;;;;;4.13;2.53;;;17.40;99.90;;;;;;5034862;28;20186;-71
2022/10/10 12:02:48;;;;;;;6.05;2.20;;;17.40;99.90;;;;;;5033058;28;20208;-70
2022/10/10 12:05:23;;;;;;;9.32;2.63;;;17.40;99.90;;;;;;5030200;28;20257;-72
2022/10/10 12:08:12;;;;;;;6.20;2.88;;;17.30;99.90;;;;;;5029464;28;20215;-71
2022/10/10 12:10:52;;;;;;;3.63;2.90;;;17.30;99.90;;;;;;5034764;28;20224;-71
2022/10/10 12:13:37;;;;;;;5.53;2.83;;;17.60;99.90;;;;;;5010518;28;20252;-71
2022/10/10 12:16:08;;;;;;;6.43;2.80;;;17.80;99.90;;;;;;5032621;28;20575;-70
2022/10/10 12:18:45;;;;;;;3.97;2.70;;;17.70;99.90;;;;;;5038889;28;20203;-70
2022/10/10 12:21:16;;;;;;;4.93;3.08;;;17.80;99.90;;;;;;5032184;28;20851;-70
2022/10/10 12:23:47;;;;;;;6.32;3.45;;;17.80;99.90;;;;;;5030998;28;20216;-71
2022/10/10 12:26:16;;;;;;;5.15;2.50;;;17.80;99.90;;;;;;5040295;28;20223;-70
2022/10/10 12:29:09;;;;;;;4.05;2.63;;;17.60;99.90;;;;;;5030803;28;20243;-70
2022/10/10 12:31:36;;;;;;;5.88;2.83;;;17.60;99.90;;;;;;5026254;28;20291;-70
2022/10/10 12:34:15;;;;;;;4.82;2.58;;;17.60;99.90;;;;;;5035657;28;20260;-71
2022/10/10 12:36:42;;;;;;;3.78;2.58;;;17.60;99.90;;;;;;5034098;28;20195;-71
2022/10/10 12:39:09;;;;;;;4.43;2.83;;;17.50;99.90;;;;;;5030008;28;20205;-70
2022/10/10 12:41:41;;;;;;;5.47;2.92;;;17.50;99.90;;;;;;5005785;28;20714;-70
2022/10/10 12:44:34;;;;;;;4.65;2.55;;;17.60;99.90;;;;;;5036854;28;20216;-70
2022/10/10 12:47:15;;;;;;;4.80;3.05;;;17.70;99.90;;;;;;5030606;28;20219;-71
2022/10/10 12:49:57;;;;;;;5.60;3.00;;;17.60;99.90;;;;;;5024636;28;20269;-71
2022/10/10 12:52:27;;;;;;;9.52;3.08;;;17.70;99.90;;;;;;5032958;28;20314;-71
2022/10/10 12:55:08;;;;;;;2.67;2.20;;;17.50;99.90;;;;;;5030246;28;20224;-70
2022/10/10 12:57:44;;;;;;;5.72;2.97;;;17.60;99.90;;;;;;5025377;28;20172;-70
2022/10/10 13:00:20;;;;;;;3.63;2.63;;;17.60;99.90;;;;;;5031295;28;20173;-71
2022/10/10 13:02:49;;;;;;;6.57;2.60;;;17.60;99.90;;;;;;5030200;28;20394;-70
2022/10/10 13:05:19;;;;;;;7.22;3.22;;;17.60;99.90;;;;;;5029077;28;20211;-70
2022/10/10 13:07:48;;;;;;;4.95;2.92;;;17.60;99.90;;;;;;5028091;28;20216;-71